Time;durP1;ratioP1;P1;durP2;ratioP2;P2;SDS_P1;SDS_P2;PMS_P1;PMS_P2;Temp;Humidity;BMP_temperature;BMP_pressure;BME280_temperature;BME280_humidity;BME280_pressure;Samples;Min_cycle;Max_cycle;Signal;HPM_P1;HPM_P2
2022/05/16 00:02:10;;;;;;;8.67;7.90;;;;;;;17.32;74.09;95221.91;5073305;28;20460;-74
2022/05/16 00:04:37;;;;;;;9.40;8.60;;;;;;;17.21;74.46;95217.75;5073098;28;20445;-76
2022/05/16 00:07:04;;;;;;;9.93;9.03;;;;;;;17.14;75.23;95214.09;5073024;28;20471;-76
2022/05/16 00:09:31;;;;;;;13.60;9.30;;;;;;;17.05;75.44;95220.34;5072787;28;20991;-76
2022/05/16 00:12:00;;;;;;;9.87;8.97;;;;;;;17.00;75.26;95220.84;5072954;28;20452;-76
2022/05/16 00:14:27;;;;;;;12.37;8.53;;;;;;;17.00;75.60;95220.03;5073043;28;20826;-76
2022/05/16 00:16:54;;;;;;;9.93;9.13;;;;;;;16.93;75.91;95206.59;5072972;28;20441;-76
2022/05/16 00:19:20;;;;;;;9.17;8.30;;;;;;;16.93;76.07;95219.00;5072977;28;20476;-77
2022/05/16 00:21:47;;;;;;;10.37;8.90;;;;;;;16.90;76.21;95216.69;5072964;28;20446;-76
2022/05/16 00:24:15;;;;;;;9.13;8.40;;;;;;;16.86;76.07;95218.00;5072546;28;20889;-77
2022/05/16 00:26:41;;;;;;;9.53;8.77;;;;;;;16.82;76.35;95216.66;5072948;28;20445;-76
2022/05/16 00:29:10;;;;;;;9.70;8.27;;;;;;;16.83;75.83;95221.81;5072662;28;20506;-76
2022/05/16 00:31:37;;;;;;;10.37;9.37;;;;;;;16.84;76.07;95218.16;5072809;28;20632;-77
2022/05/16 00:34:04;;;;;;;8.73;7.93;;;;;;;16.89;75.63;95217.66;5072375;28;20449;-77
2022/05/16 00:36:31;;;;;;;10.33;9.00;;;;;;;16.79;75.76;95220.47;5072867;28;20452;-76
2022/05/16 00:38:57;;;;;;;8.83;8.13;;;;;;;16.81;75.61;95215.84;5072206;28;20452;-76
2022/05/16 00:41:24;;;;;;;8.90;8.10;;;;;;;16.76;76.01;95220.75;5072646;28;20448;-77
2022/05/16 00:43:55;;;;;;;9.67;8.67;;;;;;;16.76;75.69;95212.81;5072244;28;20453;-76
2022/05/16 00:46:26;;;;;;;11.53;9.23;;;;;;;16.71;76.51;95215.94;5072356;28;20457;-76
2022/05/16 00:48:52;;;;;;;9.70;8.83;;;;;;;16.59;76.51;95217.19;5072109;28;20814;-76
2022/05/16 00:51:32;;;;;;;9.93;8.80;;;;;;;16.63;76.63;95220.34;5072481;28;20449;-76
2022/05/16 00:54:06;;;;;;;10.23;8.90;;;;;;;16.67;76.53;95221.72;5072466;28;20447;-76
2022/05/16 00:56:34;;;;;;;9.67;8.77;;;;;;;16.66;76.56;95222.72;5071920;28;20792;-76
2022/05/16 00:59:01;;;;;;;10.73;9.73;;;;;;;16.56;76.60;95222.81;5072102;28;20451;-76
2022/05/16 01:07:00;;;;;;;10.30;9.30;;;;;;;16.35;78.41;95211.78;5072208;28;20432;-77
2022/05/16 01:09:27;;;;;;;10.93;8.57;;;;;;;16.32;77.98;95204.13;5072293;28;20483;-76
2022/05/16 01:11:54;;;;;;;8.80;7.97;;;;;;;16.34;77.82;95212.75;5072049;28;20446;-77
2022/05/16 01:14:44;;;;;;;10.50;9.50;;;;;;;16.39;78.12;95215.75;5071961;28;20453;-76
2022/05/16 01:17:13;;;;;;;11.93;8.50;;;;;;;16.29;78.18;95204.47;4970803;28;20500;-77
2022/05/16 01:19:40;;;;;;;10.37;9.50;;;;;;;16.32;78.60;95214.72;4970864;28;20465;-76
2022/05/16 01:22:23;;;;;;;10.43;9.53;;;;;;;16.32;78.19;95212.91;4938716;28;20454;-77
2022/05/16 01:24:51;;;;;;;9.97;9.13;;;;;;;16.36;77.55;95213.44;4971038;28;20445;-75
2022/05/16 01:27:18;;;;;;;15.03;9.13;;;;;;;16.36;77.23;95206.31;4970719;28;20452;-76
2022/05/16 01:29:45;;;;;;;9.60;8.47;;;;;;;16.35;77.12;95206.47;4970979;28;20493;-76
2022/05/16 01:32:12;;;;;;;8.43;7.63;;;;;;;16.28;77.66;95202.81;4971012;28;20849;-77
2022/05/16 01:34:40;;;;;;;10.73;9.73;;;;;;;16.20;77.97;95208.88;4971205;28;20460;-76
2022/05/16 01:37:07;;;;;;;10.67;9.67;;;;;;;16.20;78.00;95205.41;4970809;28;20456;-75
2022/05/16 01:39:35;;;;;;;9.50;8.60;;;;;;;16.21;77.88;95207.06;4970844;28;20461;-76
2022/05/16 01:42:02;;;;;;;9.03;8.23;;;;;;;16.23;78.11;95205.09;4922524;28;20437;-76
2022/05/16 01:44:29;;;;;;;10.07;9.17;;;;;;;16.24;78.70;95206.75;4970799;28;20442;-76
2022/05/16 01:46:56;;;;;;;9.83;8.80;;;;;;;16.20;78.69;95200.94;4970680;28;20453;-77
2022/05/16 01:49:22;;;;;;;11.03;9.93;;;;;;;16.20;78.69;95202.75;4970670;28;21011;-76
2022/05/16 01:51:49;;;;;;;9.00;8.30;;;;;;;16.14;78.78;95200.72;4954473;28;20445;-76
2022/05/16 01:54:17;;;;;;;10.97;9.97;;;;;;;16.03;79.47;95193.88;5025809;28;20441;-76
2022/05/16 01:56:46;;;;;;;13.30;10.40;;;;;;;16.00;79.79;95207.44;5020078;28;20499;-76
2022/05/16 01:59:13;;;;;;;10.00;9.17;;;;;;;16.00;79.99;95204.78;5009777;28;20440;-77
2022/05/16 02:01:40;;;;;;;10.07;9.27;;;;;;;15.92;80.39;95208.22;5009669;28;20443;-76
2022/05/16 02:04:06;;;;;;;11.50;9.57;;;;;;;15.95;80.54;95207.91;5009723;28;20439;-77
2022/05/16 02:06:33;;;;;;;10.43;9.47;;;;;;;15.97;80.18;95210.38;5009566;28;20432;-75
2022/05/16 02:09:00;;;;;;;13.27;10.30;;;;;;;16.02;79.61;95208.09;5011653;28;20448;-76
2022/05/16 02:11:27;;;;;;;12.10;10.83;;;;;;;16.02;79.14;95219.50;5013044;28;20841;-76
2022/05/16 02:13:56;;;;;;;11.23;10.13;;;;;;;16.05;78.90;95219.19;5013193;28;20487;-76
2022/05/16 02:16:22;;;;;;;10.67;9.43;;;;;;;16.02;79.47;95222.16;5018642;28;20463;-76
2022/05/16 02:18:49;;;;;;;10.27;9.03;;;;;;;16.04;78.95;95224.66;5074944;28;20469;-76
2022/05/16 02:26:47;;;;;;;10.30;9.30;;;;;;;15.99;78.47;95227.78;5075051;28;20791;-76
2022/05/16 02:29:18;;;;;;;11.73;9.60;;;;;;;15.97;78.09;95227.09;5074595;28;20872;-76
2022/05/16 02:31:46;;;;;;;10.60;9.53;;;;;;;15.92;78.76;95229.38;5074923;28;20459;-76
2022/05/16 02:34:14;;;;;;;10.30;9.30;;;;;;;15.84;79.74;95231.13;5074835;28;20563;-76
2022/05/16 02:36:41;;;;;;;10.93;10.00;;;;;;;15.82;79.77;95233.09;5022674;28;20440;-76
2022/05/16 02:39:08;;;;;;;11.43;10.43;;;;;;;15.76;80.44;95226.59;5074842;28;20556;-76
2022/05/16 02:41:35;;;;;;;10.70;9.70;;;;;;;15.72;79.82;95225.25;5074523;28;20530;-76
2022/05/16 02:44:02;;;;;;;21.00;9.97;;;;;;;15.62;80.42;95229.81;5022531;28;20445;-76
2022/05/16 02:46:30;;;;;;;11.10;9.07;;;;;;;15.62;80.17;95221.88;5074508;28;20441;-76
2022/05/16 02:48:57;;;;;;;10.17;9.17;;;;;;;15.61;79.88;95226.31;5074531;28;20790;-76
2022/05/16 02:51:24;;;;;;;10.23;9.33;;;;;;;15.63;79.91;95220.88;5074662;28;20473;-76
2022/05/16 02:53:51;;;;;;;10.40;9.50;;;;;;;15.55;80.03;95228.69;5074346;28;20455;-76
2022/05/16 02:56:18;;;;;;;10.20;9.27;;;;;;;15.53;80.17;95222.72;5074472;28;20436;-76
2022/05/16 02:58:45;;;;;;;11.33;9.40;;;;;;;15.50;79.96;95218.56;5074162;28;20444;-76
2022/05/16 03:01:13;;;;;;;10.87;9.17;;;;;;;15.37;80.62;95218.97;5074478;28;20815;-77
2022/05/16 03:03:41;;;;;;;9.57;8.83;;;;;;;15.25;81.76;95228.09;5074378;28;20443;-76
2022/05/16 03:06:10;;;;;;;9.57;8.77;;;;;;;15.22;82.20;95235.50;5074107;28;20936;-76
2022/05/16 03:08:37;;;;;;;10.00;9.10;;;;;;;15.27;81.88;95223.47;5074309;28;20437;-76
2022/05/16 03:11:05;;;;;;;10.33;9.23;;;;;;;15.30;81.60;95227.63;5074332;28;20507;-76
2022/05/16 03:13:32;;;;;;;10.57;9.47;;;;;;;15.31;81.60;95224.84;5074250;28;20453;-75
2022/05/16 03:16:00;;;;;;;10.90;10.10;;;;;;;15.30;82.15;95232.91;5074123;28;20448;-76
2022/05/16 03:18:29;;;;;;;11.90;9.70;;;;;;;15.28;82.87;95230.44;5073690;28;20473;-77
2022/05/16 03:20:58;;;;;;;10.47;9.40;;;;;;;15.34;82.72;95235.13;5038406;28;20447;-76
2022/05/16 03:23:25;;;;;;;11.60;10.40;;;;;;;15.42;82.54;95240.50;5074045;28;20429;-77
2022/05/16 03:25:53;;;;;;;10.73;9.83;;;;;;;15.54;81.85;95235.81;5073969;28;20445;-75
2022/05/16 03:28:20;;;;;;;11.90;10.47;;;;;;;15.65;81.63;95234.78;5073869;28;20464;-76
2022/05/16 03:30:47;;;;;;;14.63;10.30;;;;;;;15.74;81.48;95232.03;5073769;28;20476;-76
2022/05/16 03:33:14;;;;;;;10.90;9.80;;;;;;;15.86;80.91;95237.09;5038261;28;20445;-76
2022/05/16 03:35:42;;;;;;;10.47;9.43;;;;;;;15.93;80.60;95240.78;5073619;28;20556;-76
2022/05/16 03:40:41;;;;;;;10.57;9.57;;;;;;;16.00;79.88;95242.66;5073538;28;20437;-77
2022/05/16 03:40:57;;;;;;;11.33;10.33;;;;;;;16.11;79.91;95239.75;5073385;28;20958;-77
2022/05/16 03:43:24;;;;;;;11.60;10.53;;;;;;;16.17;79.73;95242.75;5073387;28;20456;-77
2022/05/16 03:45:51;;;;;;;12.00;10.90;;;;;;;16.26;79.42;95240.03;5073553;28;20433;-76
2022/05/16 03:48:18;;;;;;;11.23;10.07;;;;;;;16.38;78.68;95245.88;5073257;28;20449;-75
2022/05/16 03:50:44;;;;;;;12.00;9.57;;;;;;;16.58;78.35;95244.69;5073068;28;20468;-76
2022/05/16 03:53:13;;;;;;;10.47;9.47;;;;;;;17.11;78.20;95251.56;5073555;28;20459;-75
2022/05/16 03:55:40;;;;;;;11.23;10.23;;;;;;;17.61;74.48;95243.50;5073247;28;20444;-75
2022/05/16 03:58:07;;;;;;;12.00;9.73;;;;;;;18.25;71.81;95264.97;5073350;28;20540;-76
2022/05/16 04:00:33;;;;;;;11.10;9.60;;;;;;;18.88;69.41;95266.84;5073590;28;20976;-76
2022/05/16 04:03:00;;;;;;;11.13;8.63;;;;;;;19.36;66.91;95264.97;5021458;28;20453;-75
2022/05/16 04:05:27;;;;;;;11.03;8.70;;;;;;;19.79;64.36;95261.72;5072985;28;20445;-77
2022/05/16 04:07:54;;;;;;;9.50;7.40;;;;;;;20.27;62.90;95275.69;5072817;28;20796;-77
2022/05/16 04:10:23;;;;;;;8.10;7.40;;;;;;;20.73;61.32;95276.41;5073060;28;20491;-77
2022/05/16 04:12:50;;;;;;;11.73;8.50;;;;;;;20.97;58.51;95279.84;5072832;28;20449;-75
2022/05/16 04:15:21;;;;;;;7.67;7.07;;;;;;;20.90;57.16;95282.41;5072819;28;20441;-77
2022/05/16 04:17:48;;;;;;;7.27;6.77;;;;;;;20.86;57.24;95286.47;5072709;28;20453;-76
2022/05/16 04:20:15;;;;;;;11.13;7.47;;;;;;;20.78;57.57;95285.69;5072522;28;20839;-76
2022/05/16 04:22:43;;;;;;;8.27;7.53;;;;;;;20.82;57.25;95289.69;5071330;28;20488;-76
2022/05/16 04:25:12;;;;;;;7.50;6.20;;;;;;;21.12;55.99;95294.00;5021140;28;20510;-76
2022/05/16 04:27:41;;;;;;;6.97;6.43;;;;;;;21.23;55.61;95290.91;5072578;28;20445;-77
2022/05/16 04:30:09;;;;;;;6.70;6.10;;;;;;;21.49;54.31;95294.91;5071874;28;20484;-77
2022/05/16 04:32:36;;;;;;;7.87;7.13;;;;;;;21.78;54.10;95294.84;5072112;28;20445;-76
2022/05/16 04:35:04;;;;;;;10.93;6.87;;;;;;;22.02;53.17;95285.63;5021112;28;20472;-76
2022/05/16 04:37:32;;;;;;;6.50;5.90;;;;;;;22.14;51.59;95289.47;5072205;28;20477;-77
2022/05/16 04:39:59;;;;;;;6.53;6.03;;;;;;;22.36;51.77;95290.28;5072617;28;20433;-78
2022/05/16 04:42:44;;;;;;;9.13;7.73;;;;;;;22.50;51.54;95293.88;5072350;28;20441;-77
2022/05/16 04:45:18;;;;;;;9.50;6.70;;;;;;;22.82;50.96;95296.00;5053549;28;20528;-76
2022/05/16 04:47:49;;;;;;;7.07;6.47;;;;;;;23.08;50.46;95302.56;5072218;28;20448;-76
2022/05/16 04:50:18;;;;;;;11.30;7.67;;;;;;;23.39;49.35;95308.28;5072086;28;20485;-76
2022/05/16 04:52:46;;;;;;;9.60;7.57;;;;;;;23.63;49.17;95306.97;5072051;28;20459;-76
2022/05/16 04:55:14;;;;;;;7.73;7.13;;;;;;;23.68;48.81;95304.53;5036997;28;20444;-76
2022/05/16 04:57:41;;;;;;;8.10;7.30;;;;;;;23.99;48.31;95309.34;5072101;28;20448;-76
2022/05/16 05:00:11;;;;;;;8.13;7.40;;;;;;;24.15;47.55;95310.03;5072116;28;20447;-76
2022/05/16 05:02:39;;;;;;;19.70;7.67;;;;;;;24.34;47.24;95304.72;5072265;28;20816;-76
2022/05/16 05:05:09;;;;;;;7.40;6.83;;;;;;;24.58;46.58;95303.31;5072001;28;20441;-76
2022/05/16 05:07:36;;;;;;;7.80;6.83;;;;;;;24.75;46.09;95305.56;5074008;28;20990;-77
2022/05/16 05:15:34;;;;;;;7.90;7.27;;;;;;;25.20;45.27;95307.38;5028424;28;20447;-77
2022/05/16 05:18:03;;;;;;;7.33;6.73;;;;;;;25.30;44.37;95299.72;5071581;28;20441;-77
2022/05/16 05:20:32;;;;;;;7.40;6.67;;;;;;;25.52;44.45;95305.63;5072260;28;20441;-76
2022/05/16 05:23:00;;;;;;;7.80;7.03;;;;;;;25.73;43.82;95312.59;5071904;28;20444;-77
2022/05/16 05:25:27;;;;;;;20.33;6.50;;;;;;;25.92;43.67;95318.94;5071842;28;20784;-77
2022/05/16 05:27:54;;;;;;;7.73;7.03;;;;;;;26.11;43.45;95312.63;5071632;28;20445;-78
2022/05/16 05:30:23;;;;;;;7.73;6.87;;;;;;;26.35;42.74;95313.75;5071983;28;20432;-77
2022/05/16 05:32:51;;;;;;;7.73;6.90;;;;;;;26.37;42.76;95319.75;5072044;28;20449;-77
2022/05/16 05:35:20;;;;;;;7.87;6.40;;;;;;;26.43;42.57;95320.72;5071864;28;20447;-77
2022/05/16 05:37:47;;;;;;;6.80;6.17;;;;;;;26.43;42.53;95324.25;5071822;28;20441;-78
2022/05/16 05:40:15;;;;;;;9.77;6.43;;;;;;;26.65;41.78;95322.03;5071497;28;20445;-77
2022/05/16 05:42:43;;;;;;;8.40;7.50;;;;;;;26.90;41.76;95319.34;5073598;28;20440;-78
2022/05/16 05:45:11;;;;;;;8.90;8.00;;;;;;;27.09;41.59;95326.41;5075684;28;20946;-78
2022/05/16 05:47:38;;;;;;;9.13;8.10;;;;;;;26.98;41.37;95326.31;5075938;28;20456;-77
2022/05/16 05:50:07;;;;;;;9.30;8.50;;;;;;;27.11;41.06;95327.03;5075869;28;20448;-77
2022/05/16 05:52:35;;;;;;;10.47;8.03;;;;;;;27.03;42.06;95324.63;5075291;28;20480;-77
2022/05/16 05:55:02;;;;;;;8.63;7.83;;;;;;;26.69;42.40;95322.41;5023715;28;20444;-76
2022/05/16 05:57:29;;;;;;;9.60;7.90;;;;;;;26.72;42.71;95322.78;5075487;28;20444;-77
2022/05/16 05:59:57;;;;;;;15.63;9.00;;;;;;;26.60;41.98;95327.25;5075191;28;20800;-77
2022/05/16 06:02:25;;;;;;;10.33;9.30;;;;;;;26.43;42.70;95316.19;5075669;28;20486;-77
2022/05/16 06:04:52;;;;;;;12.33;9.33;;;;;;;25.74;44.70;95314.28;5075483;28;20598;-77
2022/05/16 06:07:19;;;;;;;18.47;10.10;;;;;;;25.71;45.15;95325.44;5075212;28;20448;-77
2022/05/16 06:09:48;;;;;;;10.43;9.10;;;;;;;26.10;44.60;95321.75;5075048;28;20447;-77
2022/05/16 06:12:15;;;;;;;12.80;9.87;;;;;;;26.38;44.43;95315.19;5075456;28;20488;-77
2022/05/16 06:14:43;;;;;;;16.43;10.50;;;;;;;26.35;44.84;95315.63;5075184;28;20441;-78
2022/05/16 06:17:11;;;;;;;14.33;10.30;;;;;;;26.18;45.71;95312.56;5074925;28;20535;-77
2022/05/16 06:19:38;;;;;;;11.23;10.13;;;;;;;26.20;45.50;95318.56;5075392;28;20468;-77
2022/05/16 06:22:05;;;;;;;12.60;11.40;;;;;;;26.57;44.59;95321.44;5073893;28;20476;-77
2022/05/16 06:27:18;;;;;;;13.00;9.57;;;;;;;26.64;43.53;95311.47;5074805;28;20432;-77
2022/05/16 06:29:45;;;;;;;10.73;9.63;;;;;;;26.83;44.80;95311.28;5075138;28;20862;-78
2022/05/16 06:32:12;;;;;;;11.27;9.80;;;;;;;26.64;43.15;95309.59;5022852;28;20487;-77
2022/05/16 06:34:39;;;;;;;12.47;8.97;;;;;;;26.35;43.72;95321.00;5074894;28;20449;-77
2022/05/16 06:37:06;;;;;;;9.43;8.37;;;;;;;26.52;44.80;95311.34;5074679;28;20445;-76
2022/05/16 06:39:33;;;;;;;10.13;9.10;;;;;;;26.74;42.99;95309.94;5074747;28;20437;-77
2022/05/16 06:41:59;;;;;;;12.83;9.30;;;;;;;26.79;43.29;95312.78;5074369;28;20805;-77
2022/05/16 06:44:28;;;;;;;10.37;9.37;;;;;;;26.82;42.20;95311.50;5073677;28;20461;-76
2022/05/16 06:46:55;;;;;;;11.80;9.33;;;;;;;26.57;42.97;95302.59;5074215;28;20449;-77
2022/05/16 06:49:22;;;;;;;8.70;7.97;;;;;;;26.82;42.78;95311.50;5074571;28;20501;-77
2022/05/16 06:51:49;;;;;;;9.23;8.40;;;;;;;26.83;41.67;95319.38;5022213;28;20476;-77
2022/05/16 06:54:16;;;;;;;8.90;8.17;;;;;;;26.90;41.81;95313.94;5073672;28;20936;-77
2022/05/16 06:56:43;;;;;;;10.20;7.97;;;;;;;27.05;42.46;95309.06;5074588;28;20460;-78
2022/05/16 06:59:10;;;;;;;10.30;9.47;;;;;;;27.46;41.94;95310.28;5074494;28;20438;-77
2022/05/16 07:01:38;;;;;;;10.33;9.30;;;;;;;27.78;40.83;95305.59;5074322;28;20935;-77
2022/05/16 07:04:05;;;;;;;16.67;10.03;;;;;;;27.01;42.60;95307.84;5074300;28;20946;-78
2022/05/16 07:06:32;;;;;;;13.87;10.17;;;;;;;26.86;42.71;95305.47;5074383;28;20940;-77
2022/05/16 07:08:59;;;;;;;9.00;8.10;;;;;;;26.86;42.90;95308.16;5022440;28;20452;-76
2022/05/16 07:11:26;;;;;;;10.33;8.10;;;;;;;26.98;41.39;95307.44;5074329;28;20487;-76
2022/05/16 07:13:53;;;;;;;13.03;8.80;;;;;;;26.93;41.29;95304.59;5022128;28;20444;-77
2022/05/16 07:16:20;;;;;;;16.10;7.90;;;;;;;27.05;41.78;95297.47;5074400;28;20445;-77
2022/05/16 07:18:48;;;;;;;13.37;9.23;;;;;;;27.23;39.61;95302.06;5073826;28;20483;-77
2022/05/16 07:21:15;;;;;;;10.43;7.40;;;;;;;26.97;40.51;95312.00;5074115;28;20966;-78
2022/05/16 07:23:42;;;;;;;12.53;8.00;;;;;;;27.15;40.01;95303.16;5073944;28;20471;-77
2022/05/16 07:28:53;;;;;;;11.30;8.60;;;;;;;27.29;39.70;95301.16;5073629;28;20471;-77
2022/05/16 07:31:20;;;;;;;10.40;9.10;;;;;;;27.48;40.58;95304.69;5073279;28;20481;-77
2022/05/16 07:33:49;;;;;;;10.50;8.00;;;;;;;27.84;39.89;95299.28;5073341;28;20437;-77
2022/05/16 07:36:15;;;;;;;9.10;8.23;;;;;;;28.21;38.59;95300.03;5073710;28;20445;-77
2022/05/16 07:38:42;;;;;;;9.33;8.43;;;;;;;28.22;38.29;95298.97;5073492;28;20444;-77
2022/05/16 07:41:09;;;;;;;15.30;8.57;;;;;;;28.23;38.62;95303.31;5073249;28;20943;-78
2022/05/16 07:43:37;;;;;;;14.20;8.70;;;;;;;27.79;40.39;95293.75;5073185;28;20448;-76
2022/05/16 07:46:04;;;;;;;11.20;8.80;;;;;;;27.54;40.50;95296.53;5073124;28;20460;-76
2022/05/16 07:48:31;;;;;;;9.80;8.77;;;;;;;27.27;40.64;95290.59;5073558;28;20502;-77
2022/05/16 07:51:00;;;;;;;9.97;8.57;;;;;;;27.31;40.68;95291.81;5021367;28;20939;-78
2022/05/16 07:53:27;;;;;;;10.03;9.13;;;;;;;27.34;40.49;95290.53;5073297;28;20445;-77
2022/05/16 07:55:57;;;;;;;16.27;8.53;;;;;;;27.03;41.40;95289.59;5073332;28;20449;-77
2022/05/16 07:58:25;;;;;;;14.37;9.27;;;;;;;27.32;40.86;95289.94;5072872;28;20445;-77
2022/05/16 08:00:52;;;;;;;12.93;9.13;;;;;;;27.29;42.13;95287.69;5073375;28;20526;-76
2022/05/16 08:03:21;;;;;;;11.00;8.77;;;;;;;27.22;41.94;95286.94;5072921;28;20788;-77
2022/05/16 08:05:49;;;;;;;16.73;9.40;;;;;;;27.27;41.05;95287.91;5072506;28;20454;-75
2022/05/16 08:11:02;;;;;;;18.50;9.63;;;;;;;27.30;42.08;95289.31;5072799;28;20436;-77
2022/05/16 08:13:29;;;;;;;16.80;9.30;;;;;;;27.34;41.41;95282.44;5072737;28;20444;-77
2022/05/16 08:15:57;;;;;;;8.80;7.70;;;;;;;27.28;41.12;95288.72;5072755;28;20452;-77
2022/05/16 08:18:24;;;;;;;15.00;10.07;;;;;;;26.89;41.30;95284.50;5072660;28;20472;-77
2022/05/16 08:20:54;;;;;;;13.53;9.10;;;;;;;27.07;42.27;95285.41;5053674;28;20429;-76
2022/05/16 08:23:25;;;;;;;10.53;9.27;;;;;;;27.16;40.07;95281.38;5072934;28;20456;-76
2022/05/16 08:25:53;;;;;;;21.13;9.67;;;;;;;27.22;39.15;95279.69;5072892;28;20947;-76
2022/05/16 08:28:22;;;;;;;12.13;8.40;;;;;;;27.45;40.22;95278.97;5073287;28;20458;-77
2022/05/16 08:30:49;;;;;;;11.33;7.93;;;;;;;27.70;37.60;95278.91;5073098;28;20459;-76
2022/05/16 08:33:16;;;;;;;12.73;8.93;;;;;;;27.74;37.57;95272.84;5073314;28;20487;-77
2022/05/16 08:35:43;;;;;;;22.23;8.80;;;;;;;27.86;38.00;95277.50;5073100;28;20441;-76
2022/05/16 08:41:01;;;;;;;10.40;8.70;;;;;;;27.94;35.67;95280.69;5074038;28;20440;-77
2022/05/16 08:43:49;;;;;;;11.00;7.70;;;;;;;27.87;35.71;95271.03;5073605;28;20502;-78
2022/05/16 08:46:27;;;;;;;8.70;6.90;;;;;;;27.45;33.54;95273.59;5073765;28;20451;-77
2022/05/16 08:48:58;;;;;;;8.17;7.20;;;;;;;27.65;35.26;95266.13;5073246;28;20457;-77
2022/05/16 08:51:27;;;;;;;12.13;9.20;;;;;;;27.53;35.66;95259.00;5073665;28;20543;-77
2022/05/16 08:54:04;;;;;;;14.53;8.53;;;;;;;27.38;36.01;95254.81;5021745;28;20433;-76
2022/05/16 08:56:36;;;;;;;13.90;6.40;;;;;;;27.09;33.02;95256.38;5073596;28;20440;-76
2022/05/16 08:59:07;;;;;;;6.57;5.97;;;;;;;27.11;33.69;95256.97;5075086;28;20441;-77
2022/05/16 09:01:38;;;;;;;10.87;6.03;;;;;;;27.31;33.68;95255.94;5073441;28;20449;-78
2022/05/16 09:04:09;;;;;;;14.20;5.50;;;;;;;27.41;32.50;95248.97;5073540;28;20448;-78
2022/05/16 09:06:40;;;;;;;9.30;5.67;;;;;;;27.19;33.22;95249.66;5073228;28;20808;-77
2022/05/16 09:09:12;;;;;;;6.17;5.40;;;;;;;27.42;31.19;95247.91;5073568;28;20448;-78
2022/05/16 09:11:58;;;;;;;7.00;5.37;;;;;;;27.30;30.34;95248.91;5071275;28;20495;-78
2022/05/16 09:14:41;;;;;;;8.80;4.37;;;;;;;27.24;29.31;95250.63;5063796;28;20441;-78
2022/05/16 09:17:18;;;;;;;4.63;3.90;;;;;;;27.16;29.22;95242.81;5019982;28;20484;-78
2022/05/16 09:20:10;;;;;;;4.37;3.50;;;;;;;27.25;28.54;95249.59;5070527;28;20475;-78
2022/05/16 09:22:48;;;;;;;4.70;4.30;;;;;;;27.34;29.94;95234.75;5026659;28;21012;-78
2022/05/16 09:25:20;;;;;;;4.00;3.43;;;;;;;27.35;27.10;95235.56;5079427;28;20462;-78
2022/05/16 09:30:38;;;;;;;3.50;2.90;;;;;;;27.15;26.41;95233.09;5079681;28;20463;-78
2022/05/16 09:33:10;;;;;;;9.20;3.60;;;;;;;27.08;27.05;95235.88;5079889;28;20477;-78
2022/05/16 09:35:46;;;;;;;14.07;4.43;;;;;;;27.10;26.70;95227.56;5079481;28;20433;-78
2022/05/16 09:38:13;;;;;;;7.53;3.60;;;;;;;26.63;27.06;95215.59;5079844;28;20480;-78
2022/05/16 09:40:46;;;;;;;5.90;3.50;;;;;;;26.67;26.37;95225.69;5079471;28;20466;-78
2022/05/16 09:43:20;;;;;;;3.97;3.10;;;;;;;26.61;25.63;95223.06;5059852;28;20446;-78
2022/05/16 09:45:55;;;;;;;3.73;2.80;;;;;;;26.49;25.77;95221.09;5060016;28;20463;-78
2022/05/16 09:48:24;;;;;;;7.87;4.03;;;;;;;26.29;26.95;95206.13;5059250;28;20445;-78
2022/05/16 09:50:59;;;;;;;8.30;3.73;;;;;;;26.26;27.80;95215.44;5059276;28;20449;-79
2022/05/16 09:53:32;;;;;;;4.03;3.63;;;;;;;26.02;28.60;95209.03;5060180;28;20481;-78
2022/05/16 09:56:05;;;;;;;4.90;3.97;;;;;;;26.12;27.98;95203.16;5059399;28;20446;-78
2022/05/16 09:58:46;;;;;;;3.80;2.70;;;;;;;26.27;27.50;95200.94;5059556;28;20485;-78
2022/05/16 10:01:28;;;;;;;5.93;4.10;;;;;;;26.23;26.83;95200.56;5059657;28;20452;-78
2022/05/16 10:03:56;;;;;;;3.20;3.00;;;;;;;26.28;26.39;95189.16;5059334;28;20449;-78
2022/05/16 10:06:30;;;;;;;4.93;3.40;;;;;;;26.40;26.78;95192.00;5059254;28;20850;-78
2022/05/16 10:09:03;;;;;;;6.23;3.30;;;;;;;26.43;27.11;95191.53;5059301;28;20445;-77
2022/05/16 10:11:30;;;;;;;8.00;2.90;;;;;;;26.35;26.16;95184.59;5059775;28;20465;-77
2022/05/16 10:13:59;;;;;;;3.50;3.20;;;;;;;26.33;26.22;95178.56;5059256;28;20441;-78
2022/05/16 10:16:30;;;;;;;6.07;3.30;;;;;;;26.09;27.50;95182.91;5059272;28;20450;-77
2022/05/16 10:18:59;;;;;;;3.30;3.00;;;;;;;26.11;27.54;95175.44;5059533;28;20475;-77
2022/05/16 10:21:30;;;;;;;4.77;3.43;;;;;;;26.16;27.05;95180.16;5058962;28;20445;-78
2022/05/16 10:23:59;;;;;;;4.80;3.70;;;;;;;26.25;28.10;95176.13;5057945;28;20958;-78
2022/05/16 10:26:31;;;;;;;3.37;3.07;;;;;;;26.30;27.00;95162.84;5058146;28;20510;-77
2022/05/16 10:29:03;;;;;;;6.30;3.50;;;;;;;26.34;27.13;95161.41;5055596;28;20450;-77
2022/05/16 10:34:23;;;;;;;5.73;3.60;;;;;;;26.65;26.05;95156.97;5059328;28;20922;-78
2022/05/16 10:36:54;;;;;;;4.43;3.10;;;;;;;26.80;26.69;95154.72;5074796;28;20444;-77
2022/05/16 10:39:24;;;;;;;4.50;3.33;;;;;;;26.84;27.04;95150.53;5074614;28;20942;-78
2022/05/16 10:41:57;;;;;;;6.30;3.37;;;;;;;26.75;25.77;95149.19;5075130;28;20440;-77
2022/05/16 10:44:31;;;;;;;3.90;2.70;;;;;;;26.66;25.32;95145.16;5074615;28;20441;-77
2022/05/16 10:47:02;;;;;;;3.10;2.80;;;;;;;26.77;25.62;95142.53;5074605;28;20455;-77
2022/05/16 10:49:38;;;;;;;4.77;3.00;;;;;;;26.86;26.71;95130.41;5074342;28;20966;-78
2022/05/16 10:52:25;;;;;;;3.53;3.23;;;;;;;27.06;28.30;95140.16;5074599;28;20565;-78
2022/05/16 10:54:52;;;;;;;5.40;3.33;;;;;;;27.13;28.23;95135.50;4973262;28;20809;-78
2022/05/16 10:57:33;;;;;;;6.50;3.60;;;;;;;27.11;27.51;95138.41;4973306;28;20520;-78
2022/05/16 11:00:07;;;;;;;8.73;3.87;;;;;;;27.07;27.95;95134.53;4972760;28;20440;-77
2022/05/16 11:02:57;;;;;;;3.40;3.20;;;;;;;27.02;28.50;95133.56;4973280;28;20468;-78
2022/05/16 11:05:49;;;;;;;4.10;3.70;;;;;;;26.82;27.93;95118.44;4973242;28;20469;-79
2022/05/16 11:08:29;;;;;;;7.20;3.40;;;;;;;26.77;28.34;95122.84;4973032;28;20446;-78
2022/05/16 11:11:03;;;;;;;4.00;3.17;;;;;;;26.74;28.65;95115.22;4973199;28;20856;-78
2022/05/16 11:13:37;;;;;;;4.30;3.30;;;;;;;26.83;28.36;95120.09;4973237;28;20504;-78
2022/05/16 11:16:11;;;;;;;8.27;3.53;;;;;;;26.91;29.61;95118.97;4973434;28;20449;-79
2022/05/16 11:18:45;;;;;;;7.90;4.57;;;;;;;26.97;28.07;95115.38;4971381;28;20607;-78
2022/05/16 11:21:23;;;;;;;5.93;3.03;;;;;;;26.96;27.50;95123.69;4973127;28;20507;-78
2022/05/16 11:23:59;;;;;;;4.83;3.87;;;;;;;26.89;27.98;95106.75;4971828;28;20976;-79
2022/05/16 11:26:36;;;;;;;4.67;3.20;;;;;;;26.90;29.03;95109.25;4969511;28;20458;-78
2022/05/16 11:29:19;;;;;;;2.93;2.73;;;;;;;26.89;27.99;95106.75;4957904;28;20461;-78
2022/05/16 11:32:04;;;;;;;3.87;3.33;;;;;;;26.95;28.57;95105.88;4995545;28;20821;-80
2022/05/16 11:34:46;;;;;;;6.13;3.03;;;;;;;26.69;27.70;95112.41;5051144;28;20457;-78
2022/05/16 11:37:22;;;;;;;3.20;2.90;;;;;;;26.58;27.63;95105.03;5054668;28;21068;-77
2022/05/16 11:39:55;;;;;;;5.00;2.97;;;;;;;26.63;28.90;95092.59;5054099;28;20440;-78
2022/05/16 11:42:29;;;;;;;4.13;3.13;;;;;;;26.65;27.94;95100.44;5055020;28;20203;-78
2022/05/16 11:45:09;;;;;;;3.40;3.13;;;;;;;26.73;27.88;95102.81;5055349;28;20449;-77
2022/05/16 11:47:45;;;;;;;7.80;2.60;;;;;;;26.68;27.10;95094.59;5054807;28;20450;-77
2022/05/16 11:50:22;;;;;;;4.33;2.60;;;;;;;26.71;27.39;95089.59;5054556;28;20464;-77
2022/05/16 11:52:55;;;;;;;7.23;3.50;;;;;;;26.81;28.75;95089.88;5054720;28;20489;-77
2022/05/16 12:00:59;;;;;;;2.40;2.20;;;;;;;26.85;26.06;95084.84;5034676;28;20560;-77
2022/05/16 12:03:37;;;;;;;7.17;2.30;;;;;;;26.89;26.29;95077.97;4999924;28;20451;-77
2022/05/16 12:06:22;;;;;;;4.20;2.40;;;;;;;26.90;26.98;95070.72;5019171;28;20450;-77
2022/05/16 12:08:49;;;;;;;2.77;2.50;;;;;;;26.86;27.09;95065.75;5048916;28;20450;-77
2022/05/16 12:11:22;;;;;;;6.23;2.13;;;;;;;26.74;26.80;95075.66;5053131;28;20468;-77
2022/05/16 12:14:06;;;;;;;2.30;2.20;;;;;;;26.72;26.02;95052.72;5050477;28;20477;-78
2022/05/16 12:16:42;;;;;;;6.40;2.57;;;;;;;26.78;26.30;95041.84;5043771;28;20456;-77
2022/05/16 12:19:18;;;;;;;4.47;2.90;;;;;;;26.73;25.75;95049.78;5059606;28;20504;-77
2022/05/16 12:21:56;;;;;;;2.50;2.30;;;;;;;26.83;25.77;95055.44;5028737;28;20474;-77